Aughwick, Pennsylvania
Current Conditions -  °F | °C
As of 1:53 PM on Thursday 23 Oct 2014 (Local Time) from KAOO Reporting Station
Clear Clear  
Wind Chill: 14°   Ceiling: Unl
Heat Index: 14°   Visibility: 10mi
Dew Point:   Wind: 18mph
Humidity: 58%   Direction: 310°NW
Pressure: 29.94"   Gusts: 28mph
Location:  40.4281°N, 77.8329°W
Report Text: KAOO 231753Z AUTO 31016G24KT 10SM CLR 14/06 A2994 RMK AO2 SLP142 T01440061 10144 20078 58022
Loading
Personal Weather Stations






























Interactive Weather Map
Tropical Storm Tracking
New forecast layout! Learn more

10-Day Weather Forecast

Advertisements
Track Severe Weather on mobile